This is the latest recevied weather packets stored in our database for station/object SQ3MKP-13. If no packets are shown the sender has not sent any weather packets the latest 1 day(s).
| Time | Temp. | Humidity | Pressure | Rain* | Wind** | Luminosity | Snow |
|---|---|---|---|---|---|---|---|
| 1778079008 | 17.78° C | 72% | 995.8 hPa | - | - | 112 W/m² | - |
| 1778074192 | 18.33° C | 68% | 995.4 hPa | - | - | 218 W/m² | - |
| 1778072988 | 17.78° C | 67% | 995.3 hPa | - | - | 87 W/m² | - |
| 1778072385 | 18.33° C | 67% | 995.2 hPa | - | - | 160 W/m² | - |
| 1778071482 | 18.33° C | 64% | 995.3 hPa | - | - | 268 W/m² | - |
| 1778069978 | 17.78° C | 66% | 995.3 hPa | - | - | 128 W/m² | - |
| 1778069376 | 18.33° C | 66% | 995.2 hPa | - | - | 263 W/m² | - |
| 1778068473 | 17.78° C | 67% | 995.3 hPa | - | - | 570 W/m² | - |
| 1778068172 | 17.22° C | 68% | 995.2 hPa | - | - | 272 W/m² | - |
| 1778065765 | 17.78° C | 68% | 995.3 hPa | - | - | 144 W/m² | - |
| 1778065464 | 17.78° C | 67% | 995.3 hPa | - | - | 108 W/m² | - |
| 1778065162 | 17.78° C | 66% | 995.2 hPa | - | - | 172 W/m² | - |
| 1778064561 | 17.78° C | 66% | 995.2 hPa | - | - | 208 W/m² | - |
| 1778064260 | 17.78° C | 66% | 995.3 hPa | - | - | 308 W/m² | - |
| 1778063959 | 17.22° C | 67% | 995.3 hPa | - | - | 293 W/m² | - |
| 1778063658 | 17.78° C | 66% | 995.3 hPa | - | - | 339 W/m² | - |
| 1778063357 | 17.22° C | 67% | 995.3 hPa | - | - | 355 W/m² | - |
| 1778062755 | 17.22° C | 68% | 995.3 hPa | - | - | 327 W/m² | - |
| 1778062454 | 17.22° C | 68% | 995.4 hPa | - | - | 242 W/m² | - |
| 1778062153 | 16.67° C | 70% | 995.3 hPa | - | - | 570 W/m² | - |
| 1778061852 | 16.67° C | 69% | 995.3 hPa | - | - | 833 W/m² | - |
| 1778061551 | 16.67° C | 69% | 995.4 hPa | - | - | 365 W/m² | - |
| 1778061250 | 16.11° C | 70% | 995.5 hPa | - | - | 356 W/m² | - |
| 1778060949 | 15.56° C | 72% | 995.3 hPa | - | - | 589 W/m² | - |
| 1778059746 | 15° C | 73% | 995.4 hPa | - | - | 245 W/m² | - |
* Rain since midnight (hover to see other rain measurements)
** Current wind speed in m/s (hover to see current wind gust speed)